Time;durP1;ratioP1;P1;durP2;ratioP2;P2;SDS_P1;SDS_P2;PMS_P1;PMS_P2;Temp;Humidity;BMP_temperature;BMP_pressure;BME280_temperature;BME280_humidity;BME280_pressure;Samples;Min_cycle;Max_cycle;Signal;HPM_P1;HPM_P2
2023/01/19 00:00:09;;;;;;;167.77;45.03;;;;;;;;;;8396938;28;20045;-87
2023/01/19 00:04:32;;;;;;;115.55;31.30;;;;;;;;;;8424107;28;20135;-87
2023/01/19 00:08:35;;;;;;;72.43;22.30;;;;;;;;;;8396901;28;20490;-88
2023/01/19 00:12:39;;;;;;;39.50;13.93;;;;;;;;;;8415054;28;20055;-88
2023/01/19 00:16:42;;;;;;;47.22;15.13;;;;;;;;;;8416658;28;20047;-88
2023/01/19 00:20:45;;;;;;;166.23;41.17;;;;;;;;;;8402931;28;20047;-88
2023/01/19 00:24:49;;;;;;;66.82;24.48;;;;;;;;;;8415634;28;20399;-88
2023/01/19 00:28:53;;;;;;;94.45;29.83;;;;;;;;;;8410092;28;20121;-88
2023/01/19 00:32:56;;;;;;;449.50;125.45;;;;;;;;;;8395877;28;20476;-87
2023/01/19 00:37:01;;;;;;;251.45;62.55;;;;;;;;;;8396171;28;20044;-87
2023/01/19 00:41:04;;;;;;;84.30;25.42;;;;;;;;;;8409914;28;20047;-87
2023/01/19 00:45:10;;;;;;;62.00;17.60;;;;;;;;;;8402524;28;20496;-87
2023/01/19 00:49:13;;;;;;;57.13;15.93;;;;;;;;;;8402978;28;20067;-87
2023/01/19 00:53:15;;;;;;;59.33;16.52;;;;;;;;;;8414314;28;20043;-88
2023/01/19 00:57:19;;;;;;;54.33;16.52;;;;;;;;;;8406577;28;20123;-88
2023/01/19 01:01:23;;;;;;;57.10;17.58;;;;;;;;;;8403867;28;20064;-88
2023/01/19 01:05:26;;;;;;;77.43;24.20;;;;;;;;;;8416836;28;20123;-86
2023/01/19 01:09:29;;;;;;;79.97;21.88;;;;;;;;;;8405635;28;20201;-87
2023/01/19 01:13:31;;;;;;;66.38;22.00;;;;;;;;;;8397411;28;20511;-88
2023/01/19 01:17:36;;;;;;;62.60;20.45;;;;;;;;;;8408533;28;20549;-87
2023/01/19 01:21:39;;;;;;;68.15;20.60;;;;;;;;;;8417392;28;20086;-88
2023/01/19 01:25:43;;;;;;;120.78;29.75;;;;;;;;;;8421491;28;20044;-86
2023/01/19 01:29:46;;;;;;;81.32;24.33;;;;;;;;;;8398926;28;20041;-88
2023/01/19 01:33:51;;;;;;;101.40;27.92;;;;;;;;;;8407175;28;20484;-88
2023/01/19 01:37:58;;;;;;;74.90;23.58;;;;;;;;;;8406474;28;20051;-87
2023/01/19 01:42:01;;;;;;;78.03;20.52;;;;;;;;;;8423649;28;20488;-87
2023/01/19 01:46:04;;;;;;;62.38;18.73;;;;;;;;;;8412653;28;20119;-88
2023/01/19 01:50:15;;;;;;;54.33;16.98;;;;;;;;;;8413943;28;20076;-88
2023/01/19 01:54:21;;;;;;;48.22;16.77;;;;;;;;;;8415351;28;20132;-88
2023/01/19 01:58:24;;;;;;;81.60;20.85;;;;;;;;;;8417593;28;20467;-87
2023/01/19 02:15:33;;;;;;;93.40;25.77;;;;;;;;;;8404707;28;20143;-88
2023/01/19 02:19:40;;;;;;;91.85;27.23;;;;;;;;;;8410386;28;20048;-88
2023/01/19 02:23:46;;;;;;;78.30;22.95;;;;;;;;;;8399929;28;20045;-87
2023/01/19 02:27:50;;;;;;;69.00;19.42;;;;;;;;;;8424193;28;20496;-88
2023/01/19 02:31:54;;;;;;;67.07;18.92;;;;;;;;;;8433006;28;20052;-87
2023/01/19 02:35:57;;;;;;;71.47;19.67;;;;;;;;;;8422104;28;20049;-89
2023/01/19 02:40:03;;;;;;;72.13;19.27;;;;;;;;;;8401795;28;20487;-87
2023/01/19 02:44:08;;;;;;;89.50;22.60;;;;;;;;;;8399900;28;20598;-88
2023/01/19 02:48:11;;;;;;;69.88;21.92;;;;;;;;;;8403141;28;20044;-88
2023/01/19 02:52:17;;;;;;;78.28;21.17;;;;;;;;;;8407402;28;20055;-87
2023/01/19 02:56:39;;;;;;;70.30;22.30;;;;;;;;;;8417444;28;20044;-87
2023/01/19 03:00:50;;;;;;;84.13;26.20;;;;;;;;;;8432130;28;20048;-88
2023/01/19 03:05:09;;;;;;;74.60;21.38;;;;;;;;;;8410996;28;20048;-87
2023/01/19 03:09:17;;;;;;;85.28;24.40;;;;;;;;;;8401551;28;20114;-87
2023/01/19 03:13:31;;;;;;;80.65;23.33;;;;;;;;;;8408050;28;20496;-87
2023/01/19 03:17:35;;;;;;;117.22;37.38;;;;;;;;;;8398376;28;20044;-87
2023/01/19 03:21:41;;;;;;;142.30;42.83;;;;;;;;;;8398201;28;20036;-86
2023/01/19 03:25:47;;;;;;;118.70;35.60;;;;;;;;;;8411451;28;20123;-87
2023/01/19 03:29:55;;;;;;;93.88;27.98;;;;;;;;;;8416265;28;20051;-86
2023/01/19 03:34:03;;;;;;;75.07;26.17;;;;;;;;;;8411517;28;20122;-86
2023/01/19 03:38:12;;;;;;;78.30;24.52;;;;;;;;;;8397772;28;20545;-87
2023/01/19 03:42:16;;;;;;;82.50;25.60;;;;;;;;;;8397522;28;20040;-87
2023/01/19 03:46:21;;;;;;;94.97;28.90;;;;;;;;;;8397682;28;20037;-87
2023/01/19 03:50:27;;;;;;;261.52;77.25;;;;;;;;;;8410861;28;20471;-86
2023/01/19 03:54:30;;;;;;;120.85;41.80;;;;;;;;;;8424025;28;20037;-87
2023/01/19 03:58:33;;;;;;;74.78;25.08;;;;;;;;;;8397361;28;20058;-87
2023/01/19 04:02:37;;;;;;;74.25;22.95;;;;;;;;;;8410473;28;20045;-86
2023/01/19 04:06:40;;;;;;;93.38;32.35;;;;;;;;;;8396854;28;20484;-87
2023/01/19 04:10:43;;;;;;;89.50;30.58;;;;;;;;;;8396645;28;20048;-87
2023/01/19 04:14:46;;;;;;;113.75;37.97;;;;;;;;;;8410421;28;20132;-87
2023/01/19 04:18:51;;;;;;;73.40;24.10;;;;;;;;;;8398536;28;20052;-87
2023/01/19 04:22:54;;;;;;;82.13;25.85;;;;;;;;;;8420334;28;20411;-87
2023/01/19 04:27:00;;;;;;;76.07;23.52;;;;;;;;;;8412445;28;20119;-86
2023/01/19 04:31:03;;;;;;;73.28;25.23;;;;;;;;;;8397968;28;20048;-87
2023/01/19 04:35:08;;;;;;;73.40;25.42;;;;;;;;;;8402377;28;20131;-86
2023/01/19 04:39:11;;;;;;;70.60;23.25;;;;;;;;;;8415786;28;20044;-87
2023/01/19 04:43:14;;;;;;;87.30;25.17;;;;;;;;;;8401677;28;20483;-85
2023/01/19 04:47:17;;;;;;;88.43;28.40;;;;;;;;;;8429291;28;20052;-87
2023/01/19 04:51:21;;;;;;;87.55;26.63;;;;;;;;;;8429526;28;20043;-86
2023/01/19 04:55:25;;;;;;;76.88;26.13;;;;;;;;;;8415559;28;20054;-87
2023/01/19 04:59:27;;;;;;;90.40;26.80;;;;;;;;;;8425292;28;20040;-86
2023/01/19 05:03:30;;;;;;;115.80;39.63;;;;;;;;;;8418875;28;20066;-87
2023/01/19 05:07:35;;;;;;;92.90;30.38;;;;;;;;;;8398319;28;20041;-86
2023/01/19 05:11:38;;;;;;;101.93;33.22;;;;;;;;;;8394691;28;20045;-87
2023/01/19 05:15:41;;;;;;;111.85;36.67;;;;;;;;;;8395439;28;20071;-87
2023/01/19 05:19:44;;;;;;;91.80;30.80;;;;;;;;;;8405938;28;20052;-87
2023/01/19 05:23:48;;;;;;;80.18;30.08;;;;;;;;;;8414634;28;20123;-86
2023/01/19 05:27:51;;;;;;;89.38;31.25;;;;;;;;;;8404533;28;20136;-87
2023/01/19 05:31:54;;;;;;;76.40;26.48;;;;;;;;;;8425534;28;20051;-84
2023/01/19 05:35:57;;;;;;;79.43;26.67;;;;;;;;;;8403980;28;20048;-87
2023/01/19 05:40:01;;;;;;;83.03;26.38;;;;;;;;;;8425723;28;20153;-87
2023/01/19 05:44:04;;;;;;;82.25;30.30;;;;;;;;;;8404392;28;20048;-86
2023/01/19 05:48:08;;;;;;;90.15;29.15;;;;;;;;;;8398797;28;20078;-87
2023/01/19 05:52:11;;;;;;;87.70;30.27;;;;;;;;;;8403868;28;20041;-87
2023/01/19 05:56:15;;;;;;;74.78;27.65;;;;;;;;;;8394498;28;20054;-86
2023/01/19 06:00:19;;;;;;;71.93;26.02;;;;;;;;;;8394801;28;20110;-86
2023/01/19 06:04:22;;;;;;;81.82;27.35;;;;;;;;;;8408170;28;20071;-87
2023/01/19 06:08:25;;;;;;;92.15;29.90;;;;;;;;;;8405335;28;20118;-86
2023/01/19 06:12:29;;;;;;;101.05;34.40;;;;;;;;;;8414299;28;20067;-86
2023/01/19 06:16:32;;;;;;;101.40;33.50;;;;;;;;;;8414373;28;20119;-86
2023/01/19 06:20:35;;;;;;;119.03;39.03;;;;;;;;;;8405043;28;20117;-87
2023/01/19 06:24:38;;;;;;;116.57;39.25;;;;;;;;;;8396947;28;20064;-87
2023/01/19 06:28:43;;;;;;;107.97;39.85;;;;;;;;;;8426770;28;20047;-87
2023/01/19 06:32:46;;;;;;;137.98;47.63;;;;;;;;;;8399871;28;20060;-86
2023/01/19 06:36:50;;;;;;;132.40;43.97;;;;;;;;;;8431443;28;20067;-87
2023/01/19 06:40:54;;;;;;;90.60;30.65;;;;;;;;;;8407963;28;20048;-87
2023/01/19 06:44:58;;;;;;;91.38;31.70;;;;;;;;;;8395628;28;20040;-87
2023/01/19 06:49:01;;;;;;;100.95;29.50;;;;;;;;;;8424295;28;20048;-86
2023/01/19 06:53:04;;;;;;;80.22;27.10;;;;;;;;;;8413432;28;20043;-89
2023/01/19 06:57:07;;;;;;;113.70;40.00;;;;;;;;;;8415191;28;20056;-86
2023/01/19 07:01:11;;;;;;;87.68;33.30;;;;;;;;;;8398766;28;20052;-87
2023/01/19 07:05:15;;;;;;;105.70;35.60;;;;;;;;;;8399529;28;20135;-85
2023/01/19 07:09:19;;;;;;;102.00;35.38;;;;;;;;;;8398337;28;20045;-86
2023/01/19 07:13:22;;;;;;;118.80;41.88;;;;;;;;;;8397165;28;20523;-88
2023/01/19 07:17:26;;;;;;;113.20;39.97;;;;;;;;;;8416309;28;20051;-85
2023/01/19 07:21:29;;;;;;;115.32;35.45;;;;;;;;;;8397702;28;20127;-86
2023/01/19 07:25:33;;;;;;;120.72;38.38;;;;;;;;;;8398040;28;20040;-88
2023/01/19 07:29:36;;;;;;;123.28;40.88;;;;;;;;;;8409370;28;20039;-86
2023/01/19 07:33:40;;;;;;;121.85;42.88;;;;;;;;;;8412817;28;20056;-87
2023/01/19 07:37:43;;;;;;;116.70;41.05;;;;;;;;;;8395881;28;20426;-87
2023/01/19 07:41:48;;;;;;;130.30;42.85;;;;;;;;;;8397668;28;20051;-86
2023/01/19 07:45:51;;;;;;;117.28;40.45;;;;;;;;;;8398697;28;20127;-87
2023/01/19 07:49:56;;;;;;;102.72;36.97;;;;;;;;;;8421679;28;20048;-86
2023/01/19 07:53:59;;;;;;;114.13;38.38;;;;;;;;;;8392720;28;20071;-88
2023/01/19 07:58:05;;;;;;;112.63;39.72;;;;;;;;;;8395442;28;20048;-87
2023/01/19 08:02:10;;;;;;;118.43;43.35;;;;;;;;;;8396549;28;20614;-87
2023/01/19 08:06:20;;;;;;;103.53;36.53;;;;;;;;;;8413690;28;20616;-87
2023/01/19 08:10:24;;;;;;;109.93;42.90;;;;;;;;;;8418409;28;20044;-86
2023/01/19 08:14:27;;;;;;;127.43;45.28;;;;;;;;;;8417908;28;20090;-86
2023/01/19 08:18:30;;;;;;;138.68;50.67;;;;;;;;;;8419854;28;20799;-85
2023/01/19 08:22:35;;;;;;;144.43;52.33;;;;;;;;;;8424882;28;20588;-88
2023/01/19 08:26:37;;;;;;;140.40;51.08;;;;;;;;;;8411422;28;20048;-87
2023/01/19 08:30:42;;;;;;;152.68;54.90;;;;;;;;;;8421889;28;20091;-86
2023/01/19 08:34:44;;;;;;;157.27;59.95;;;;;;;;;;8387481;28;20423;-88
2023/01/19 08:38:49;;;;;;;176.57;66.72;;;;;;;;;;8416841;28;20452;-89
2023/01/19 08:42:51;;;;;;;147.60;54.17;;;;;;;;;;8391924;28;20040;-88
2023/01/19 08:46:54;;;;;;;175.57;68.15;;;;;;;;;;8420776;28;20040;-88
2023/01/19 08:50:57;;;;;;;175.30;66.60;;;;;;;;;;8417838;28;20044;-86
2023/01/19 08:55:02;;;;;;;187.15;75.40;;;;;;;;;;8419508;28;20043;-86
2023/01/19 08:59:05;;;;;;;159.23;63.15;;;;;;;;;;8420134;28;20089;-86
2023/01/19 09:03:11;;;;;;;180.98;72.88;;;;;;;;;;8411996;28;20069;-86
2023/01/19 09:07:14;;;;;;;157.70;67.78;;;;;;;;;;8405887;28;20071;-86
2023/01/19 09:11:18;;;;;;;143.25;59.13;;;;;;;;;;8411056;28;20063;-86
2023/01/19 09:15:21;;;;;;;124.50;55.15;;;;;;;;;;8420704;28;20118;-86
2023/01/19 09:19:24;;;;;;;125.20;54.75;;;;;;;;;;8405196;28;20044;-86
2023/01/19 09:23:27;;;;;;;144.90;62.05;;;;;;;;;;8421666;28;20040;-86
2023/01/19 09:27:32;;;;;;;145.50;65.70;;;;;;;;;;8420302;28;20414;-87
2023/01/19 09:31:35;;;;;;;143.65;59.78;;;;;;;;;;8402533;28;20560;-86
2023/01/19 09:35:39;;;;;;;165.23;53.83;;;;;;;;;;8405023;28;20076;-86
2023/01/19 09:39:42;;;;;;;153.27;51.03;;;;;;;;;;8408732;28;20399;-86
2023/01/19 09:43:50;;;;;;;64.68;27.02;;;;;;;;;;8402586;28;20079;-84
2023/01/19 09:47:54;;;;;;;64.55;25.23;;;;;;;;;;8413231;28;20044;-85
2023/01/19 09:51:57;;;;;;;55.88;23.48;;;;;;;;;;8420921;28;20072;-85
2023/01/19 09:56:00;;;;;;;57.30;24.83;;;;;;;;;;8397331;28;20041;-85
2023/01/19 10:00:14;;;;;;;57.70;25.58;;;;;;;;;;8417370;28;20098;-85
2023/01/19 10:04:41;;;;;;;80.97;30.98;;;;;;;;;;8424982;28;20044;-87
2023/01/19 10:08:50;;;;;;;81.55;35.00;;;;;;;;;;8426067;28;20086;-89
2023/01/19 10:13:11;;;;;;;100.25;41.10;;;;;;;;;;8428459;28;20051;-89
2023/01/19 10:17:25;;;;;;;128.20;45.55;;;;;;;;;;8429374;28;20040;-89
2023/01/19 10:21:32;;;;;;;139.00;47.53;;;;;;;;;;8427922;28;20079;-85
2023/01/19 10:25:35;;;;;;;130.45;53.35;;;;;;;;;;8424331;28;20047;-85
2023/01/19 10:29:38;;;;;;;114.90;47.08;;;;;;;;;;8415651;28;20452;-88
2023/01/19 10:33:42;;;;;;;126.03;49.40;;;;;;;;;;8412213;28;20467;-84
2023/01/19 10:37:45;;;;;;;114.22;45.50;;;;;;;;;;8392383;28;20127;-84
2023/01/19 10:41:50;;;;;;;98.68;41.50;;;;;;;;;;8411554;28;20044;-84
2023/01/19 10:45:53;;;;;;;105.97;44.42;;;;;;;;;;8414472;28;20541;-89
2023/01/19 10:49:58;;;;;;;92.13;38.17;;;;;;;;;;8408025;28;20052;-91
2023/01/19 10:54:03;;;;;;;98.32;38.28;;;;;;;;;;8418203;28;20585;-84
2023/01/19 10:58:07;;;;;;;86.47;34.30;;;;;;;;;;8414811;28;20041;-84
2023/01/19 11:02:21;;;;;;;87.57;35.85;;;;;;;;;;8408990;28;20040;-91
2023/01/19 11:10:57;;;;;;;89.10;34.25;;;;;;;;;;8417855;28;20446;-88
2023/01/19 11:15:15;;;;;;;96.18;36.58;;;;;;;;;;8418354;28;20044;-88
2023/01/19 11:19:22;;;;;;;89.68;36.42;;;;;;;;;;8419535;28;20684;-87
2023/01/19 11:23:30;;;;;;;102.65;41.22;;;;;;;;;;8412246;28;20102;-88
2023/01/19 11:27:36;;;;;;;104.82;41.03;;;;;;;;;;8410088;28;20059;-86
2023/01/19 11:31:39;;;;;;;166.57;37.35;;;;;;;;;;8424820;28;20063;-86
2023/01/19 11:35:42;;;;;;;76.45;30.23;;;;;;;;;;8425403;28;20084;-91
2023/01/19 11:39:49;;;;;;;90.85;33.92;;;;;;;;;;8426187;28;20048;-89
2023/01/19 11:43:54;;;;;;;95.63;36.15;;;;;;;;;;8425981;28;20043;-87
2023/01/19 11:47:57;;;;;;;105.18;38.17;;;;;;;;;;8387709;28;20045;-88
2023/01/19 11:52:04;;;;;;;118.18;45.50;;;;;;;;;;8422945;28;20597;-87
2023/01/19 11:56:10;;;;;;;90.38;33.90;;;;;;;;;;8424281;28;20056;-87
2023/01/19 12:00:24;;;;;;;121.80;46.88;;;;;;;;;;8425003;28;20404;-87
2023/01/19 12:04:31;;;;;;;151.05;57.60;;;;;;;;;;8411219;28;20073;-84
2023/01/19 12:08:37;;;;;;;160.43;59.33;;;;;;;;;;8425074;28;20051;-85
2023/01/19 12:12:41;;;;;;;109.93;42.03;;;;;;;;;;8421945;28;20121;-87
2023/01/19 12:16:46;;;;;;;104.32;37.55;;;;;;;;;;8421345;28;20075;-86
2023/01/19 12:20:52;;;;;;;92.75;33.47;;;;;;;;;;8411820;28;20069;-85
2023/01/19 12:25:01;;;;;;;92.40;34.75;;;;;;;;;;8414449;28;20726;-87
2023/01/19 12:29:12;;;;;;;118.65;45.00;;;;;;;;;;8407186;28;20044;-84
2023/01/19 12:33:34;;;;;;;94.60;34.58;;;;;;;;;;8411881;28;20056;-86
2023/01/19 12:37:41;;;;;;;99.63;36.15;;;;;;;;;;8404446;28;20079;-86
2023/01/19 12:41:44;;;;;;;99.72;36.50;;;;;;;;;;8406706;28;20373;-87
2023/01/19 12:45:49;;;;;;;97.30;32.80;;;;;;;;;;8419257;28;20389;-88
2023/01/19 12:49:54;;;;;;;112.80;40.22;;;;;;;;;;8424684;28;20202;-86
2023/01/19 12:53:58;;;;;;;103.47;36.97;;;;;;;;;;8423780;28;20056;-88
2023/01/19 12:58:03;;;;;;;104.55;35.97;;;;;;;;;;8423556;28;20445;-87
2023/01/19 13:02:45;;;;;;;137.75;53.13;;;;;;;;;;8423736;28;20395;-83
2023/01/19 13:11:23;;;;;;;97.45;33.70;;;;;;;;;;8392779;27;20161;-84
2023/01/19 13:15:33;;;;;;;108.82;38.35;;;;;;;;;;8386103;28;20187;-87
2023/01/19 13:19:47;;;;;;;93.78;33.95;;;;;;;;;;8385226;28;20045;-89
2023/01/19 13:23:55;;;;;;;106.60;39.50;;;;;;;;;;8386096;28;20420;-88
2023/01/19 13:28:01;;;;;;;110.40;37.03;;;;;;;;;;8384539;28;20045;-90
2023/01/19 13:32:06;;;;;;;93.78;33.20;;;;;;;;;;8385556;28;20049;-88
2023/01/19 13:36:20;;;;;;;87.88;32.70;;;;;;;;;;8381883;28;20486;-87
2023/01/19 13:40:28;;;;;;;115.00;34.80;;;;;;;;;;8415595;28;20123;-83
2023/01/19 13:44:38;;;;;;;89.25;32.00;;;;;;;;;;8385132;28;20397;-85
2023/01/19 13:48:51;;;;;;;84.05;30.98;;;;;;;;;;8384269;28;20481;-87
2023/01/19 13:52:55;;;;;;;86.28;31.25;;;;;;;;;;8384577;28;20122;-83
2023/01/19 13:56:58;;;;;;;91.32;29.95;;;;;;;;;;8384475;28;20052;-87
2023/01/19 14:01:02;;;;;;;103.85;33.85;;;;;;;;;;8384087;28;20508;-86
2023/01/19 14:05:15;;;;;;;114.03;38.42;;;;;;;;;;8374157;28;20046;-86
2023/01/19 14:09:18;;;;;;;110.15;33.97;;;;;;;;;;8383832;28;20462;-86
2023/01/19 14:13:23;;;;;;;99.43;34.40;;;;;;;;;;8379373;28;20068;-86
2023/01/19 14:17:29;;;;;;;114.57;36.28;;;;;;;;;;8375853;28;20139;-87
2023/01/19 14:21:39;;;;;;;97.57;34.08;;;;;;;;;;8344500;28;20159;-88
2023/01/19 14:25:45;;;;;;;112.70;35.13;;;;;;;;;;8336876;28;20064;-88
2023/01/19 14:29:49;;;;;;;92.78;31.27;;;;;;;;;;8351711;28;20053;-86
2023/01/19 14:33:57;;;;;;;113.70;36.28;;;;;;;;;;8349391;28;20053;-84
2023/01/19 14:37:59;;;;;;;114.18;34.17;;;;;;;;;;8361868;28;20075;-86
2023/01/19 14:42:06;;;;;;;100.68;33.10;;;;;;;;;;8361102;28;20055;-86
2023/01/19 14:46:17;;;;;;;119.55;35.35;;;;;;;;;;8361557;28;20493;-83
2023/01/19 14:50:25;;;;;;;107.13;35.63;;;;;;;;;;8360330;28;20128;-85
2023/01/19 14:54:40;;;;;;;113.65;36.53;;;;;;;;;;8360964;28;20524;-85
2023/01/19 14:58:43;;;;;;;106.03;32.75;;;;;;;;;;8354927;28;20763;-86
2023/01/19 15:02:47;;;;;;;97.63;31.55;;;;;;;;;;8353582;28;20064;-87
2023/01/19 15:06:51;;;;;;;124.53;38.80;;;;;;;;;;8356872;28;20064;-86
2023/01/19 15:10:54;;;;;;;147.25;41.70;;;;;;;;;;8359877;28;20409;-86
2023/01/19 15:14:57;;;;;;;130.95;41.00;;;;;;;;;;8359725;28;20407;-87
2023/01/19 15:19:01;;;;;;;128.32;40.58;;;;;;;;;;8359748;28;20140;-89
2023/01/19 15:23:05;;;;;;;142.20;47.58;;;;;;;;;;8360110;28;20091;-84
2023/01/19 15:27:11;;;;;;;151.10;44.95;;;;;;;;;;8359411;28;20094;-87
2023/01/19 15:31:16;;;;;;;131.10;42.78;;;;;;;;;;8357357;28;20068;-88
2023/01/19 15:35:21;;;;;;;121.18;39.13;;;;;;;;;;8360806;28;20136;-89
2023/01/19 15:39:26;;;;;;;127.15;40.55;;;;;;;;;;8359872;28;20057;-89
2023/01/19 15:43:30;;;;;;;133.05;43.60;;;;;;;;;;8359476;28;20522;-89
2023/01/19 15:47:33;;;;;;;135.07;44.85;;;;;;;;;;8358465;28;20064;-83
2023/01/19 15:51:36;;;;;;;153.77;43.95;;;;;;;;;;8359270;28;20722;-88
2023/01/19 15:55:40;;;;;;;121.85;38.55;;;;;;;;;;8358842;28;20261;-84
2023/01/19 15:59:43;;;;;;;121.25;39.25;;;;;;;;;;8359181;28;20093;-87
2023/01/19 16:03:47;;;;;;;113.13;37.90;;;;;;;;;;8358869;28;20053;-86
2023/01/19 16:07:51;;;;;;;121.68;38.38;;;;;;;;;;8358694;28;20420;-86
2023/01/19 16:11:57;;;;;;;126.78;40.75;;;;;;;;;;8358747;28;20059;-85
2023/01/19 16:16:03;;;;;;;120.72;39.65;;;;;;;;;;8352930;28;20052;-85
2023/01/19 16:20:08;;;;;;;120.85;40.13;;;;;;;;;;8356263;28;20473;-89
2023/01/19 16:24:11;;;;;;;134.93;40.05;;;;;;;;;;8358082;28;20056;-88
2023/01/19 16:28:15;;;;;;;148.27;46.28;;;;;;;;;;8357869;28;20049;-84
2023/01/19 16:32:19;;;;;;;130.32;42.30;;;;;;;;;;8351288;28;20207;-83
2023/01/19 16:36:28;;;;;;;135.98;42.95;;;;;;;;;;8347377;28;20056;-83
2023/01/19 16:40:31;;;;;;;129.13;40.85;;;;;;;;;;8344488;28;20045;-83
2023/01/19 16:44:36;;;;;;;106.65;37.42;;;;;;;;;;8356966;28;20057;-87
2023/01/19 16:48:39;;;;;;;109.88;36.03;;;;;;;;;;8355879;28;20084;-86
2023/01/19 16:52:42;;;;;;;136.13;37.45;;;;;;;;;;8357680;28;20049;-86
2023/01/19 16:56:46;;;;;;;120.15;39.17;;;;;;;;;;8348733;28;20053;-88
2023/01/19 17:00:52;;;;;;;134.23;42.05;;;;;;;;;;8346847;28;20067;-88
2023/01/19 17:04:55;;;;;;;131.90;36.88;;;;;;;;;;8356924;28;20053;-88
2023/01/19 17:09:00;;;;;;;133.90;39.13;;;;;;;;;;8356228;28;20061;-88
2023/01/19 17:13:04;;;;;;;111.22;37.55;;;;;;;;;;8340213;28;20448;-86
2023/01/19 17:17:10;;;;;;;119.25;38.17;;;;;;;;;;8350596;28;20045;-88
2023/01/19 17:21:16;;;;;;;116.30;34.40;;;;;;;;;;8356929;28;20051;-84
2023/01/19 17:25:21;;;;;;;110.57;33.60;;;;;;;;;;8338523;28;20130;-86
2023/01/19 17:29:25;;;;;;;120.85;38.00;;;;;;;;;;8341733;28;20081;-87
2023/01/19 17:33:34;;;;;;;123.80;38.17;;;;;;;;;;8341210;28;20417;-87
2023/01/19 17:37:39;;;;;;;134.82;37.38;;;;;;;;;;8337135;28;20138;-88
2023/01/19 17:41:43;;;;;;;106.70;33.63;;;;;;;;;;8353882;28;20079;-88
2023/01/19 17:45:46;;;;;;;109.25;34.40;;;;;;;;;;8351271;28;20499;-85
2023/01/19 17:49:53;;;;;;;129.18;36.75;;;;;;;;;;8355125;28;20212;-86
2023/01/19 17:53:57;;;;;;;128.25;36.35;;;;;;;;;;8354982;28;20070;-86
2023/01/19 17:58:02;;;;;;;120.20;35.67;;;;;;;;;;8358486;28;20107;-86
2023/01/19 18:02:06;;;;;;;156.00;40.40;;;;;;;;;;8358474;28;20052;-86
2023/01/19 18:06:12;;;;;;;115.45;34.58;;;;;;;;;;8359887;28;20412;-85
2023/01/19 18:10:15;;;;;;;122.15;34.92;;;;;;;;;;8359964;28;20148;-87
2023/01/19 18:14:20;;;;;;;106.47;32.47;;;;;;;;;;8350844;28;20069;-84
2023/01/19 18:18:27;;;;;;;131.73;33.90;;;;;;;;;;8349623;28;20412;-87
2023/01/19 18:22:33;;;;;;;113.22;33.15;;;;;;;;;;8350664;28;20049;-88
2023/01/19 18:26:39;;;;;;;125.78;33.97;;;;;;;;;;8350985;28;20596;-85
2023/01/19 18:30:44;;;;;;;134.70;34.92;;;;;;;;;;8339071;28;20592;-87
2023/01/19 18:35:01;;;;;;;143.85;35.80;;;;;;;;;;8346219;28;20045;-88
2023/01/19 18:39:09;;;;;;;134.75;30.80;;;;;;;;;;8332299;28;20076;-86
2023/01/19 18:43:15;;;;;;;134.95;34.22;;;;;;;;;;8360183;28;20065;-84
2023/01/19 18:47:33;;;;;;;111.55;33.60;;;;;;;;;;8354743;28;20468;-85
2023/01/19 18:52:09;;;;;;;112.28;30.27;;;;;;;;;;8337562;28;20081;-89
2023/01/19 18:56:17;;;;;;;;;;;;;;;;;;8335489;28;20045;-88
2023/01/19 19:00:24;;;;;;;85.88;24.10;;;;;;;;;;8360409;28;19928;-86
2023/01/19 19:04:29;;;;;;;63.72;19.20;;;;;;;;;;8350796;28;20091;-84
2023/01/19 19:08:37;;;;;;;60.42;21.77;;;;;;;;;;8364750;28;20057;-84
2023/01/19 19:12:47;;;;;;;84.22;28.33;;;;;;;;;;8365049;28;20127;-86
2023/01/19 19:16:54;;;;;;;84.35;27.90;;;;;;;;;;8363312;28;20036;-87
2023/01/19 19:21:00;;;;;;;81.50;28.80;;;;;;;;;;8364545;28;20143;-88
2023/01/19 19:25:04;;;;;;;71.82;25.05;;;;;;;;;;8364192;28;20044;-88
2023/01/19 19:29:11;;;;;;;60.08;22.15;;;;;;;;;;8362189;28;20076;-85
2023/01/19 19:33:19;;;;;;;60.95;18.65;;;;;;;;;;8363428;28;20061;-86
2023/01/19 19:37:24;;;;;;;52.13;21.02;;;;;;;;;;8385278;28;20106;-88
2023/01/19 19:41:31;;;;;;;61.85;22.13;;;;;;;;;;8363504;28;20118;-87
2023/01/19 19:45:37;;;;;;;55.17;21.33;;;;;;;;;;8363930;28;20061;-87
2023/01/19 19:49:41;;;;;;;67.32;24.63;;;;;;;;;;8364057;28;20123;-86
2023/01/19 19:53:53;;;;;;;61.72;28.48;;;;;;;;;;8362355;28;20075;-87
2023/01/19 19:57:57;;;;;;;88.57;35.17;;;;;;;;;;8361979;28;20044;-88
2023/01/19 20:02:03;;;;;;;78.80;32.60;;;;;;;;;;8356779;28;20045;-87
2023/01/19 20:06:11;;;;;;;79.15;30.42;;;;;;;;;;8361907;28;20045;-87
2023/01/19 20:10:15;;;;;;;52.30;22.13;;;;;;;;;;8362849;28;20080;-85
2023/01/19 20:14:21;;;;;;;68.05;25.42;;;;;;;;;;8362126;28;20124;-86
2023/01/19 20:18:28;;;;;;;59.85;23.83;;;;;;;;;;8362889;28;20045;-85
2023/01/19 20:22:33;;;;;;;59.30;22.40;;;;;;;;;;8363302;28;20048;-87
2023/01/19 20:26:41;;;;;;;63.95;22.00;;;;;;;;;;8394153;28;20105;-87
2023/01/19 20:30:46;;;;;;;62.88;22.27;;;;;;;;;;8350681;28;20485;-88
2023/01/19 20:34:51;;;;;;;61.08;21.92;;;;;;;;;;8362884;28;20803;-87
2023/01/19 20:38:55;;;;;;;55.90;20.75;;;;;;;;;;8361477;28;20056;-87
2023/01/19 20:42:59;;;;;;;51.72;22.17;;;;;;;;;;8363131;28;20060;-87
2023/01/19 20:47:04;;;;;;;59.80;22.25;;;;;;;;;;8362627;28;20124;-88
2023/01/19 20:51:12;;;;;;;56.92;23.90;;;;;;;;;;8362366;28;20045;-85
2023/01/19 20:55:17;;;;;;;48.55;20.48;;;;;;;;;;8362532;28;20053;-87
2023/01/19 20:59:22;;;;;;;56.40;20.17;;;;;;;;;;8355949;28;20052;-86
2023/01/19 21:03:28;;;;;;;49.75;21.90;;;;;;;;;;8351575;28;20099;-88
2023/01/19 21:07:35;;;;;;;59.28;21.02;;;;;;;;;;8359391;28;20052;-88
2023/01/19 21:11:39;;;;;;;57.08;22.48;;;;;;;;;;8352347;28;20132;-88
2023/01/19 21:15:42;;;;;;;55.28;20.70;;;;;;;;;;8360602;28;20048;-88
2023/01/19 21:19:45;;;;;;;63.42;22.95;;;;;;;;;;8362090;28;20041;-87
2023/01/19 21:23:50;;;;;;;58.67;24.15;;;;;;;;;;8361944;28;20767;-87
2023/01/19 21:27:53;;;;;;;61.03;23.73;;;;;;;;;;8362016;28;20083;-87
2023/01/19 21:31:57;;;;;;;53.80;21.77;;;;;;;;;;8366252;28;20044;-87
2023/01/19 21:36:00;;;;;;;68.65;24.83;;;;;;;;;;8368497;28;20080;-87
2023/01/19 21:40:04;;;;;;;60.78;23.30;;;;;;;;;;8368741;28;20547;-88
2023/01/19 21:44:10;;;;;;;59.03;22.20;;;;;;;;;;8368198;28;20048;-88
2023/01/19 21:48:14;;;;;;;57.65;22.65;;;;;;;;;;8367984;28;20143;-88
2023/01/19 21:52:16;;;;;;;57.58;21.05;;;;;;;;;;8367911;28;20049;-87
2023/01/19 21:56:21;;;;;;;61.13;22.80;;;;;;;;;;8367726;28;20049;-88
2023/01/19 22:00:25;;;;;;;49.60;19.48;;;;;;;;;;8367642;28;20143;-88
2023/01/19 22:04:28;;;;;;;50.90;21.10;;;;;;;;;;8367531;28;20119;-88
2023/01/19 22:08:31;;;;;;;47.95;16.83;;;;;;;;;;8367203;28;20163;-87
2023/01/19 22:12:35;;;;;;;53.83;19.05;;;;;;;;;;8367183;28;20106;-89
2023/01/19 22:16:38;;;;;;;46.13;17.67;;;;;;;;;;8367136;28;20110;-89
2023/01/19 22:20:41;;;;;;;56.47;20.25;;;;;;;;;;8367018;28;20073;-88
2023/01/19 22:24:45;;;;;;;48.67;18.67;;;;;;;;;;8367178;28;20090;-89
2023/01/19 22:28:53;;;;;;;52.28;19.90;;;;;;;;;;8366875;28;20049;-88
2023/01/19 22:32:56;;;;;;;49.53;20.52;;;;;;;;;;8366831;28;20452;-88
2023/01/19 22:36:59;;;;;;;49.50;21.33;;;;;;;;;;8366419;28;20108;-87
2023/01/19 22:41:11;;;;;;;42.53;18.40;;;;;;;;;;8366007;28;20116;-88
2023/01/19 22:45:15;;;;;;;;;;;;;;;;;;8366927;28;20125;-87
2023/01/19 22:49:19;;;;;;;42.60;16.98;;;;;;;;;;8366176;28;19927;-88
2023/01/19 22:53:22;;;;;;;43.88;18.80;;;;;;;;;;8365880;28;20165;-88
2023/01/19 22:57:24;;;;;;;46.22;19.70;;;;;;;;;;8365114;28;20045;-87
2023/01/19 23:01:32;;;;;;;42.85;15.75;;;;;;;;;;8365941;28;20390;-87
2023/01/19 23:05:36;;;;;;;54.55;21.88;;;;;;;;;;8365607;28;20507;-87
2023/01/19 23:09:39;;;;;;;49.15;20.58;;;;;;;;;;8365438;28;20068;-87
2023/01/19 23:13:42;;;;;;;52.63;21.25;;;;;;;;;;8365326;28;20052;-87
2023/01/19 23:17:51;;;;;;;57.50;22.25;;;;;;;;;;8365349;28;20123;-87
2023/01/19 23:21:54;;;;;;;58.50;21.65;;;;;;;;;;8365124;28;20048;-88
2023/01/19 23:26:00;;;;;;;44.88;18.80;;;;;;;;;;8364994;28;20049;-87
2023/01/19 23:30:03;;;;;;;48.05;20.35;;;;;;;;;;8364734;28;20535;-88
2023/01/19 23:34:09;;;;;;;50.08;21.70;;;;;;;;;;8364719;28;20128;-87
2023/01/19 23:38:12;;;;;;;35.58;14.02;;;;;;;;;;8364632;28;20047;-88
2023/01/19 23:42:15;;;;;;;47.30;20.48;;;;;;;;;;8364655;28;20048;-86
2023/01/19 23:46:19;;;;;;;43.47;17.25;;;;;;;;;;8364177;28;20111;-87
2023/01/19 23:50:23;;;;;;;46.75;19.30;;;;;;;;;;8364260;28;20132;-88
2023/01/19 23:54:26;;;;;;;48.22;20.25;;;;;;;;;;8363154;28;20049;-87
2023/01/19 23:58:28;;;;;;;44.20;18.70;;;;;;;;;;8364006;28;20378;-87
